Impacts METAR Board
IDs:

KMDW - Chicago/Midway Intl, IL, US

Updated at: 2100 UTC 19 May 2019
Potential Impact None Slight Moderate High
Time 19/09Z 19/10Z 19/11Z 19/12Z 19/13Z 19/14Z 19/15Z 19/16Z 19/17Z 19/18Z 19/19Z 19/20Z 19/21Z
Temp56 68 68 69 71 68 68 69 71 73 67 71 73
Dewpt55 63 61 62 62 63 62 62 63 61 61 60 58
Altim29.62 29.63 29.61 29.61 29.61 29.61 29.62 29.62 29.61 29.58 29.59 29.59 29.60
VIS8 10 10 10 10 10 10 10 10 10 4 10 10
CIG110 110 100 250 250 46 23 21 28 45 250 90 90
CoverOVCOVCBKNBKNBKNBKNBKNOVCBKNBKNBKNBKNBKN
FltCatVFRVFRVFRVFRVFRVFRMVFRMVFRMVFRVFRMVFRVFRVFR
WX---RA-------RA--------TSRA-RA--
WDir110190190190180200210200210230250260250
WSpd3 8 10 13 14 14 14 14 16 16 21 25 16
WGst-- -- -- 20 -- 27 27 25 25 27 33 37 28
Raw hourly METARs
KMDW 190853Z 11003KT 8SM SCT070 BKN110 OVC150 13/13 A2962 RMK AO2 RAE09 SLP028 P0000 60003 T01330128 58023
KMDW 190953Z 19008KT 10SM -RA SCT080 OVC110 20/17 A2963 RMK AO2 RAB02 SLP027 P0001 T02000172
KMDW 191053Z 19010KT 10SM FEW070 BKN100 BKN250 20/16 A2961 RMK AO2 RAE36 SLP021 P0001 T02000161
KMDW 191153Z 19013G20KT 10SM SCT110 BKN250 21/17 A2961 RMK AO2 SLP020 60005 70047 T02060167 10206 20117 58004
KMDW 191253Z 18014KT 10SM FEW030 SCT110 BKN250 22/17 A2961 RMK AO2 PK WND 20031/1243 SLP021 T02170167
KMDW 191353Z 20014G27KT 10SM -RA SCT026 BKN046 BKN100 BKN250 20/17 A2961 RMK AO2 PK WND 21030/1336 RAB40 SLP022 P0000 T02000172
KMDW 191453Z 21014G27KT 10SM BKN023 BKN030 BKN110 20/17 A2962 RMK AO2 PK WND 19030/1429 RAE1359 SLP025 P0000 60000 T02000167 53004
KMDW 191553Z 20014G25KT 10SM BKN021 BKN027 OVC042 21/17 A2962 RMK AO2 PK WND 20026/1533 SLP025 T02060167
KMDW 191653Z 21016G25KT 10SM SCT021 BKN028 BKN041 BKN250 22/17 A2961 RMK AO2 PK WND 21029/1623 SLP021 T02170172
KMDW 191753Z 23016G27KT 10SM FEW029 SCT037 BKN045 23/16 A2958 RMK AO2 PK WND 23032/1725 SLP014 60000 T02280161 10233 20200 58012
KMDW 191853Z 25021G33KT 4SM R31C/4000VP6000FT TSRA SCT028CB SCT065 BKN250 19/16 A2959 RMK AO2 PK WND 26036/1828 LTG DSNT N RAB26 TSB27 SLP018 OCNL LTGICCG SW-OHD-NE TS SW-OHD-NE MOV NE CB DSNT N-NE P0028 T01940161 $
KMDW 191953Z 26025G37KT 10SM -RA SCT035 SCT060 BKN090 BKN250 22/16 A2959 RMK AO2 PK WND 26037/1953 RAE08B49 TSE08 SLP018 P0001 T02170156 $
KMDW 192053Z 25016G28KT 10SM FEW037 SCT080 BKN090 BKN250 23/14 A2960 RMK AO2 PK WND 24035/2032 RAE05 SLP017 P0000 60029 T02280144 51004 $



Page loaded:  21:19 UTC  |   02:19 PM Pacific  |   03:19 PM Mountain  |   04:19 PM Central  |   05:19 PM Eastern

 

ADVISORIES

FORECASTS

FORECASTS

OBSERVATIONS

USER TOOLS

ABOUT US